sensor_id;sensor_type;location;lat;lon;timestamp;temperature;humidity
59999;DHT22;45859;51.378;6.736;2023-07-29T00:00:42;18.20;99.90
59999;DHT22;45859;51.378;6.736;2023-07-29T00:03:08;18.20;99.90
59999;DHT22;45859;51.378;6.736;2023-07-29T00:05:34;18.10;99.90
59999;DHT22;45859;51.378;6.736;2023-07-29T00:08:00;18.10;99.90
59999;DHT22;45859;51.378;6.736;2023-07-29T00:10:26;18.10;99.90
59999;DHT22;45859;51.378;6.736;2023-07-29T00:12:51;18.10;99.90
59999;DHT22;45859;51.378;6.736;2023-07-29T00:15:17;18.10;99.90
59999;DHT22;45859;51.378;6.736;2023-07-29T00:17:42;18.20;99.90
59999;DHT22;45859;51.378;6.736;2023-07-29T00:20:08;18.00;99.90
59999;DHT22;45859;51.378;6.736;2023-07-29T00:22:34;18.00;99.90
59999;DHT22;45859;51.378;6.736;2023-07-29T00:24:59;18.00;99.90
59999;DHT22;45859;51.378;6.736;2023-07-29T00:27:25;18.00;99.90
59999;DHT22;45859;51.378;6.736;2023-07-29T00:29:51;18.00;99.90
59999;DHT22;45859;51.378;6.736;2023-07-29T00:32:17;18.00;99.90
59999;DHT22;45859;51.378;6.736;2023-07-29T00:34:43;18.00;99.90
59999;DHT22;45859;51.378;6.736;2023-07-29T00:37:09;18.10;99.90
59999;DHT22;45859;51.378;6.736;2023-07-29T00:39:36;18.10;99.90
59999;DHT22;45859;51.378;6.736;2023-07-29T00:42:02;18.10;99.90
59999;DHT22;45859;51.378;6.736;2023-07-29T00:44:28;18.10;99.90
59999;DHT22;45859;51.378;6.736;2023-07-29T00:46:54;18.00;99.90
59999;DHT22;45859;51.378;6.736;2023-07-29T00:49:21;18.30;99.90
59999;DHT22;45859;51.378;6.736;2023-07-29T00:51:47;18.10;99.90
59999;DHT22;45859;51.378;6.736;2023-07-29T00:54:13;18.10;99.90
59999;DHT22;45859;51.378;6.736;2023-07-29T00:56:40;18.20;99.90
59999;DHT22;45859;51.378;6.736;2023-07-29T00:59:05;18.20;99.90
59999;DHT22;45859;51.378;6.736;2023-07-29T01:01:31;18.10;99.90
59999;DHT22;45859;51.378;6.736;2023-07-29T01:03:57;18.20;99.90
59999;DHT22;45859;51.378;6.736;2023-07-29T01:09:55;18.20;99.90
59999;DHT22;45859;51.378;6.736;2023-07-29T01:15:26;18.20;99.90
59999;DHT22;45859;51.378;6.736;2023-07-29T01:18:04;18.20;99.90
59999;DHT22;45859;51.378;6.736;2023-07-29T01:20:33;18.30;99.90
59999;DHT22;45859;51.378;6.736;2023-07-29T01:22:59;18.30;99.90
59999;DHT22;45859;51.378;6.736;2023-07-29T01:25:24;18.30;99.90
59999;DHT22;45859;51.378;6.736;2023-07-29T01:27:51;18.20;99.90
59999;DHT22;45859;51.378;6.736;2023-07-29T01:30:17;18.30;99.90
59999;DHT22;45859;51.378;6.736;2023-07-29T01:35:57;18.30;99.90
59999;DHT22;45859;51.378;6.736;2023-07-29T01:38:38;18.30;99.90
59999;DHT22;45859;51.378;6.736;2023-07-29T01:41:07;18.30;99.90
59999;DHT22;45859;51.378;6.736;2023-07-29T01:43:33;18.20;99.90
59999;DHT22;45859;51.378;6.736;2023-07-29T01:46:00;18.40;99.90
59999;DHT22;45859;51.378;6.736;2023-07-29T01:48:26;18.30;99.90
59999;DHT22;45859;51.378;6.736;2023-07-29T01:50:53;18.40;99.90
59999;DHT22;45859;51.378;6.736;2023-07-29T01:53:18;18.40;99.90
59999;DHT22;45859;51.378;6.736;2023-07-29T01:55:44;18.30;99.90
59999;DHT22;45859;51.378;6.736;2023-07-29T01:58:10;18.40;99.90
59999;DHT22;45859;51.378;6.736;2023-07-29T02:00:36;18.40;99.90
59999;DHT22;45859;51.378;6.736;2023-07-29T02:03:01;18.40;99.90
59999;DHT22;45859;51.378;6.736;2023-07-29T02:05:27;18.40;99.90
59999;DHT22;45859;51.378;6.736;2023-07-29T02:07:53;18.40;99.90
59999;DHT22;45859;51.378;6.736;2023-07-29T02:13:40;18.40;99.90
59999;DHT22;45859;51.378;6.736;2023-07-29T02:19:28;18.40;99.90
59999;DHT22;45859;51.378;6.736;2023-07-29T02:21:53;18.30;99.90
59999;DHT22;45859;51.378;6.736;2023-07-29T02:24:19;18.30;99.90
59999;DHT22;45859;51.378;6.736;2023-07-29T02:26:45;18.30;99.90
59999;DHT22;45859;51.378;6.736;2023-07-29T02:29:10;18.30;99.90
59999;DHT22;45859;51.378;6.736;2023-07-29T02:31:36;18.30;99.90
59999;DHT22;45859;51.378;6.736;2023-07-29T02:34:03;18.40;99.90
59999;DHT22;45859;51.378;6.736;2023-07-29T02:36:29;18.40;99.90
59999;DHT22;45859;51.378;6.736;2023-07-29T02:38:55;18.40;99.90
59999;DHT22;45859;51.378;6.736;2023-07-29T02:41:20;18.40;99.90
59999;DHT22;45859;51.378;6.736;2023-07-29T02:43:50;18.40;99.90
59999;DHT22;45859;51.378;6.736;2023-07-29T02:46:16;18.40;99.90
59999;DHT22;45859;51.378;6.736;2023-07-29T02:48:42;18.40;99.90
59999;DHT22;45859;51.378;6.736;2023-07-29T02:51:08;18.40;99.90
59999;DHT22;45859;51.378;6.736;2023-07-29T02:53:34;18.40;99.90
59999;DHT22;45859;51.378;6.736;2023-07-29T02:56:02;18.40;99.90
59999;DHT22;45859;51.378;6.736;2023-07-29T02:58:28;18.40;99.90
59999;DHT22;45859;51.378;6.736;2023-07-29T03:01:01;18.40;99.90
59999;DHT22;45859;51.378;6.736;2023-07-29T03:03:28;18.30;99.90
59999;DHT22;45859;51.378;6.736;2023-07-29T03:06:04;18.30;99.90
59999;DHT22;45859;51.378;6.736;2023-07-29T03:08:30;18.30;99.90
59999;DHT22;45859;51.378;6.736;2023-07-29T03:10:57;18.30;99.90
59999;DHT22;45859;51.378;6.736;2023-07-29T03:13:23;18.30;99.90
59999;DHT22;45859;51.378;6.736;2023-07-29T03:15:48;18.30;99.90
59999;DHT22;45859;51.378;6.736;2023-07-29T03:18:15;18.30;99.90
59999;DHT22;45859;51.378;6.736;2023-07-29T03:20:41;18.30;99.90
59999;DHT22;45859;51.378;6.736;2023-07-29T03:23:06;18.30;99.90
59999;DHT22;45859;51.378;6.736;2023-07-29T03:25:32;18.30;99.90
59999;DHT22;45859;51.378;6.736;2023-07-29T03:27:58;18.30;99.90
59999;DHT22;45859;51.378;6.736;2023-07-29T03:30:24;18.30;99.90
59999;DHT22;45859;51.378;6.736;2023-07-29T03:32:50;18.30;99.90
59999;DHT22;45859;51.378;6.736;2023-07-29T03:35:16;18.30;99.90
59999;DHT22;45859;51.378;6.736;2023-07-29T03:37:42;18.20;99.90
59999;DHT22;45859;51.378;6.736;2023-07-29T03:40:08;18.20;99.90
59999;DHT22;45859;51.378;6.736;2023-07-29T03:42:37;18.20;99.90
59999;DHT22;45859;51.378;6.736;2023-07-29T03:45:03;18.20;99.90
59999;DHT22;45859;51.378;6.736;2023-07-29T03:47:28;18.20;99.90
59999;DHT22;45859;51.378;6.736;2023-07-29T03:49:54;18.20;99.90
59999;DHT22;45859;51.378;6.736;2023-07-29T03:52:20;18.20;99.90
59999;DHT22;45859;51.378;6.736;2023-07-29T03:54:45;18.20;99.90
59999;DHT22;45859;51.378;6.736;2023-07-29T03:57:11;18.20;99.90
59999;DHT22;45859;51.378;6.736;2023-07-29T03:59:37;18.20;99.90
59999;DHT22;45859;51.378;6.736;2023-07-29T04:02:03;18.20;99.90
59999;DHT22;45859;51.378;6.736;2023-07-29T04:04:29;18.20;99.90
59999;DHT22;45859;51.378;6.736;2023-07-29T04:06:54;18.20;99.90
59999;DHT22;45859;51.378;6.736;2023-07-29T04:09:20;18.10;99.90
59999;DHT22;45859;51.378;6.736;2023-07-29T04:11:46;18.10;99.90
59999;DHT22;45859;51.378;6.736;2023-07-29T04:14:11;18.00;99.90
59999;DHT22;45859;51.378;6.736;2023-07-29T04:16:37;17.90;99.90
59999;DHT22;45859;51.378;6.736;2023-07-29T04:19:03;17.90;99.90
59999;DHT22;45859;51.378;6.736;2023-07-29T04:21:28;17.90;99.90
59999;DHT22;45859;51.378;6.736;2023-07-29T04:23:54;17.80;99.90
59999;DHT22;45859;51.378;6.736;2023-07-29T04:26:19;17.80;99.90
59999;DHT22;45859;51.378;6.736;2023-07-29T04:28:45;17.80;99.90
59999;DHT22;45859;51.378;6.736;2023-07-29T04:31:11;17.80;99.90
59999;DHT22;45859;51.378;6.736;2023-07-29T04:33:36;17.70;99.90
59999;DHT22;45859;51.378;6.736;2023-07-29T04:36:02;17.70;99.90
59999;DHT22;45859;51.378;6.736;2023-07-29T04:38:31;17.70;99.90
59999;DHT22;45859;51.378;6.736;2023-07-29T04:41:00;17.70;99.90
59999;DHT22;45859;51.378;6.736;2023-07-29T04:43:31;17.70;99.90
59999;DHT22;45859;51.378;6.736;2023-07-29T04:45:57;17.70;99.90
59999;DHT22;45859;51.378;6.736;2023-07-29T04:48:23;17.70;99.90
59999;DHT22;45859;51.378;6.736;2023-07-29T04:50:48;17.70;99.90
59999;DHT22;45859;51.378;6.736;2023-07-29T04:53:14;17.60;99.90
59999;DHT22;45859;51.378;6.736;2023-07-29T04:55:43;17.50;99.90
59999;DHT22;45859;51.378;6.736;2023-07-29T04:58:09;17.50;99.90
59999;DHT22;45859;51.378;6.736;2023-07-29T05:00:35;17.50;99.90
59999;DHT22;45859;51.378;6.736;2023-07-29T05:03:01;17.50;99.90
59999;DHT22;45859;51.378;6.736;2023-07-29T05:05:27;17.50;99.90
59999;DHT22;45859;51.378;6.736;2023-07-29T05:07:53;17.60;99.90
59999;DHT22;45859;51.378;6.736;2023-07-29T05:10:19;17.60;99.90
59999;DHT22;45859;51.378;6.736;2023-07-29T05:12:44;17.70;99.90
59999;DHT22;45859;51.378;6.736;2023-07-29T05:15:10;17.70;99.90
59999;DHT22;45859;51.378;6.736;2023-07-29T05:17:36;17.70;99.90
59999;DHT22;45859;51.378;6.736;2023-07-29T05:20:02;17.70;99.90
59999;DHT22;45859;51.378;6.736;2023-07-29T05:22:28;17.60;99.90
59999;DHT22;45859;51.378;6.736;2023-07-29T05:24:54;17.70;99.90
59999;DHT22;45859;51.378;6.736;2023-07-29T05:27:19;17.60;99.90
59999;DHT22;45859;51.378;6.736;2023-07-29T05:29:45;17.50;99.90
59999;DHT22;45859;51.378;6.736;2023-07-29T05:32:11;17.40;99.90
59999;DHT22;45859;51.378;6.736;2023-07-29T05:34:37;17.30;99.90
59999;DHT22;45859;51.378;6.736;2023-07-29T05:37:03;17.30;99.90
59999;DHT22;45859;51.378;6.736;2023-07-29T05:39:29;17.30;99.90
59999;DHT22;45859;51.378;6.736;2023-07-29T05:41:55;17.30;99.90
59999;DHT22;45859;51.378;6.736;2023-07-29T05:44:20;17.30;99.90
59999;DHT22;45859;51.378;6.736;2023-07-29T05:46:46;17.40;99.90
59999;DHT22;45859;51.378;6.736;2023-07-29T05:49:13;17.40;99.90
59999;DHT22;45859;51.378;6.736;2023-07-29T05:51:38;17.40;99.90
59999;DHT22;45859;51.378;6.736;2023-07-29T05:54:04;17.40;99.90
59999;DHT22;45859;51.378;6.736;2023-07-29T05:56:30;17.50;99.90
59999;DHT22;45859;51.378;6.736;2023-07-29T05:58:57;17.50;99.90
59999;DHT22;45859;51.378;6.736;2023-07-29T06:01:22;17.60;99.90
59999;DHT22;45859;51.378;6.736;2023-07-29T06:03:48;17.60;99.90
59999;DHT22;45859;51.378;6.736;2023-07-29T06:06:14;17.60;99.90
59999;DHT22;45859;51.378;6.736;2023-07-29T06:08:40;17.60;99.90
59999;DHT22;45859;51.378;6.736;2023-07-29T06:11:05;17.70;99.90
59999;DHT22;45859;51.378;6.736;2023-07-29T06:13:33;17.70;99.90
59999;DHT22;45859;51.378;6.736;2023-07-29T06:15:59;17.90;99.90
59999;DHT22;45859;51.378;6.736;2023-07-29T06:18:25;18.10;99.90
59999;DHT22;45859;51.378;6.736;2023-07-29T06:20:51;18.20;99.90
59999;DHT22;45859;51.378;6.736;2023-07-29T06:23:17;18.30;99.90
59999;DHT22;45859;51.378;6.736;2023-07-29T06:25:43;18.20;99.90
59999;DHT22;45859;51.378;6.736;2023-07-29T06:28:11;18.30;99.90
59999;DHT22;45859;51.378;6.736;2023-07-29T06:30:37;18.40;99.90
59999;DHT22;45859;51.378;6.736;2023-07-29T06:33:03;18.40;99.90
59999;DHT22;45859;51.378;6.736;2023-07-29T06:35:29;18.80;99.90
59999;DHT22;45859;51.378;6.736;2023-07-29T06:37:55;19.40;99.90
59999;DHT22;45859;51.378;6.736;2023-07-29T06:40:20;19.70;99.90
59999;DHT22;45859;51.378;6.736;2023-07-29T06:42:46;19.90;99.90
59999;DHT22;45859;51.378;6.736;2023-07-29T06:45:11;20.60;99.90
59999;DHT22;45859;51.378;6.736;2023-07-29T06:47:37;21.60;99.90
59999;DHT22;45859;51.378;6.736;2023-07-29T06:50:03;22.90;99.90
59999;DHT22;45859;51.378;6.736;2023-07-29T06:52:29;23.50;99.90
59999;DHT22;45859;51.378;6.736;2023-07-29T06:54:55;23.30;99.90
59999;DHT22;45859;51.378;6.736;2023-07-29T06:57:21;22.90;99.90
59999;DHT22;45859;51.378;6.736;2023-07-29T06:59:46;22.50;99.90
59999;DHT22;45859;51.378;6.736;2023-07-29T07:02:12;22.30;99.90
59999;DHT22;45859;51.378;6.736;2023-07-29T07:04:38;22.40;99.90
59999;DHT22;45859;51.378;6.736;2023-07-29T07:07:04;23.00;99.90
59999;DHT22;45859;51.378;6.736;2023-07-29T07:09:30;23.50;99.90
59999;DHT22;45859;51.378;6.736;2023-07-29T07:11:55;23.90;99.90
59999;DHT22;45859;51.378;6.736;2023-07-29T07:14:21;24.10;99.90
59999;DHT22;45859;51.378;6.736;2023-07-29T07:16:47;24.60;99.90
59999;DHT22;45859;51.378;6.736;2023-07-29T07:19:12;24.70;99.90
59999;DHT22;45859;51.378;6.736;2023-07-29T07:21:38;24.00;99.90
59999;DHT22;45859;51.378;6.736;2023-07-29T07:24:04;23.80;99.90
59999;DHT22;45859;51.378;6.736;2023-07-29T07:26:30;23.70;99.90
59999;DHT22;45859;51.378;6.736;2023-07-29T07:28:55;23.60;99.90
59999;DHT22;45859;51.378;6.736;2023-07-29T07:31:22;24.20;99.90
59999;DHT22;45859;51.378;6.736;2023-07-29T07:33:48;24.90;99.90
59999;DHT22;45859;51.378;6.736;2023-07-29T07:36:13;25.10;99.90
59999;DHT22;45859;51.378;6.736;2023-07-29T07:38:39;24.90;99.90
59999;DHT22;45859;51.378;6.736;2023-07-29T07:41:04;24.60;99.90
59999;DHT22;45859;51.378;6.736;2023-07-29T07:43:30;23.90;99.90
59999;DHT22;45859;51.378;6.736;2023-07-29T07:46:00;23.30;99.90
59999;DHT22;45859;51.378;6.736;2023-07-29T07:48:27;22.90;99.90
59999;DHT22;45859;51.378;6.736;2023-07-29T07:50:52;22.90;99.90
59999;DHT22;45859;51.378;6.736;2023-07-29T07:53:18;22.80;99.90
59999;DHT22;45859;51.378;6.736;2023-07-29T07:55:45;22.80;99.90
59999;DHT22;45859;51.378;6.736;2023-07-29T07:58:11;22.80;99.90
59999;DHT22;45859;51.378;6.736;2023-07-29T08:00:36;22.50;99.90
59999;DHT22;45859;51.378;6.736;2023-07-29T08:03:02;22.50;99.90
59999;DHT22;45859;51.378;6.736;2023-07-29T08:05:29;22.30;99.90
59999;DHT22;45859;51.378;6.736;2023-07-29T08:07:54;22.20;99.90
59999;DHT22;45859;51.378;6.736;2023-07-29T08:10:20;22.50;99.90
59999;DHT22;45859;51.378;6.736;2023-07-29T08:12:46;22.70;99.90
59999;DHT22;45859;51.378;6.736;2023-07-29T08:15:11;22.70;99.90
59999;DHT22;45859;51.378;6.736;2023-07-29T08:17:37;23.00;99.90
59999;DHT22;45859;51.378;6.736;2023-07-29T08:20:03;23.50;99.90
59999;DHT22;45859;51.378;6.736;2023-07-29T08:22:29;24.40;99.90
59999;DHT22;45859;51.378;6.736;2023-07-29T08:24:54;24.60;99.90
59999;DHT22;45859;51.378;6.736;2023-07-29T08:27:20;24.90;99.90
59999;DHT22;45859;51.378;6.736;2023-07-29T08:29:46;26.30;99.90
59999;DHT22;45859;51.378;6.736;2023-07-29T08:32:11;27.10;99.90
59999;DHT22;45859;51.378;6.736;2023-07-29T08:34:37;27.30;99.90
59999;DHT22;45859;51.378;6.736;2023-07-29T08:37:03;27.20;99.90
59999;DHT22;45859;51.378;6.736;2023-07-29T08:39:28;27.10;99.90
59999;DHT22;45859;51.378;6.736;2023-07-29T08:41:59;26.80;99.90
59999;DHT22;45859;51.378;6.736;2023-07-29T08:44:31;26.90;99.90
59999;DHT22;45859;51.378;6.736;2023-07-29T08:46:59;26.70;99.90
59999;DHT22;45859;51.378;6.736;2023-07-29T08:49:26;27.00;99.90
59999;DHT22;45859;51.378;6.736;2023-07-29T08:51:54;26.80;99.90
59999;DHT22;45859;51.378;6.736;2023-07-29T08:54:20;26.60;99.90
59999;DHT22;45859;51.378;6.736;2023-07-29T08:56:46;26.40;99.90
59999;DHT22;45859;51.378;6.736;2023-07-29T08:59:12;25.90;99.90
59999;DHT22;45859;51.378;6.736;2023-07-29T09:01:39;25.20;99.90
59999;DHT22;45859;51.378;6.736;2023-07-29T09:04:05;25.30;99.90
59999;DHT22;45859;51.378;6.736;2023-07-29T09:09:01;25.30;99.90
59999;DHT22;45859;51.378;6.736;2023-07-29T09:11:28;25.10;99.90
59999;DHT22;45859;51.378;6.736;2023-07-29T09:13:53;24.60;99.90
59999;DHT22;45859;51.378;6.736;2023-07-29T09:16:23;24.60;99.90
59999;DHT22;45859;51.378;6.736;2023-07-29T09:18:49;24.30;99.90
59999;DHT22;45859;51.378;6.736;2023-07-29T09:21:23;24.20;99.90
59999;DHT22;45859;51.378;6.736;2023-07-29T09:23:50;24.00;99.90
59999;DHT22;45859;51.378;6.736;2023-07-29T09:26:26;23.80;99.90
59999;DHT22;45859;51.378;6.736;2023-07-29T09:28:54;23.70;99.90
59999;DHT22;45859;51.378;6.736;2023-07-29T09:31:22;23.50;99.90
59999;DHT22;45859;51.378;6.736;2023-07-29T09:33:48;23.50;99.90
59999;DHT22;45859;51.378;6.736;2023-07-29T09:36:14;23.20;99.90
59999;DHT22;45859;51.378;6.736;2023-07-29T09:38:40;23.10;99.90
59999;DHT22;45859;51.378;6.736;2023-07-29T09:41:06;22.80;99.90
59999;DHT22;45859;51.378;6.736;2023-07-29T09:43:33;22.50;99.90
59999;DHT22;45859;51.378;6.736;2023-07-29T09:46:04;22.60;99.90
59999;DHT22;45859;51.378;6.736;2023-07-29T09:48:37;22.80;99.90
59999;DHT22;45859;51.378;6.736;2023-07-29T09:51:13;23.00;99.90
59999;DHT22;45859;51.378;6.736;2023-07-29T09:53:43;23.20;99.90
59999;DHT22;45859;51.378;6.736;2023-07-29T09:56:10;23.40;99.90
59999;DHT22;45859;51.378;6.736;2023-07-29T09:58:36;23.70;99.90
59999;DHT22;45859;51.378;6.736;2023-07-29T10:01:04;24.20;99.90
59999;DHT22;45859;51.378;6.736;2023-07-29T10:03:31;24.90;99.90
59999;DHT22;45859;51.378;6.736;2023-07-29T10:06:01;25.30;99.90
59999;DHT22;45859;51.378;6.736;2023-07-29T10:08:30;25.60;99.90
59999;DHT22;45859;51.378;6.736;2023-07-29T10:10:59;25.70;99.90
59999;DHT22;45859;51.378;6.736;2023-07-29T10:13:26;25.40;99.90
59999;DHT22;45859;51.378;6.736;2023-07-29T10:15:53;24.70;99.90
59999;DHT22;45859;51.378;6.736;2023-07-29T10:18:20;24.20;99.90
59999;DHT22;45859;51.378;6.736;2023-07-29T10:20:48;24.30;99.90
59999;DHT22;45859;51.378;6.736;2023-07-29T10:23:18;24.00;99.90
59999;DHT22;45859;51.378;6.736;2023-07-29T10:25:49;24.20;99.90
59999;DHT22;45859;51.378;6.736;2023-07-29T10:28:15;24.30;99.90
59999;DHT22;45859;51.378;6.736;2023-07-29T10:30:43;24.50;99.90
59999;DHT22;45859;51.378;6.736;2023-07-29T10:33:09;24.30;99.90
59999;DHT22;45859;51.378;6.736;2023-07-29T10:35:36;24.40;99.90
59999;DHT22;45859;51.378;6.736;2023-07-29T10:38:03;24.40;99.90
59999;DHT22;45859;51.378;6.736;2023-07-29T10:40:52;24.00;99.90
59999;DHT22;45859;51.378;6.736;2023-07-29T10:43:27;23.60;99.90
59999;DHT22;45859;51.378;6.736;2023-07-29T10:45:55;23.30;99.90
59999;DHT22;45859;51.378;6.736;2023-07-29T10:53:47;23.40;99.90
59999;DHT22;45859;51.378;6.736;2023-07-29T10:56:13;23.40;99.90
59999;DHT22;45859;51.378;6.736;2023-07-29T10:58:38;23.50;99.90
59999;DHT22;45859;51.378;6.736;2023-07-29T11:01:29;23.70;99.90
59999;DHT22;45859;51.378;6.736;2023-07-29T11:04:22;23.80;99.90
59999;DHT22;45859;51.378;6.736;2023-07-29T11:07:25;24.10;99.90
59999;DHT22;45859;51.378;6.736;2023-07-29T11:10:03;24.10;99.90
59999;DHT22;45859;51.378;6.736;2023-07-29T11:12:45;24.00;99.90
59999;DHT22;45859;51.378;6.736;2023-07-29T11:15:26;23.80;99.90
59999;DHT22;45859;51.378;6.736;2023-07-29T11:17:59;23.40;99.90
59999;DHT22;45859;51.378;6.736;2023-07-29T11:20:30;23.20;99.90
59999;DHT22;45859;51.378;6.736;2023-07-29T11:22:58;23.10;99.90
59999;DHT22;45859;51.378;6.736;2023-07-29T11:25:29;22.80;99.90
59999;DHT22;45859;51.378;6.736;2023-07-29T11:27:57;22.80;99.90
59999;DHT22;45859;51.378;6.736;2023-07-29T11:30:24;22.90;99.90
59999;DHT22;45859;51.378;6.736;2023-07-29T11:32:53;23.20;99.90
59999;DHT22;45859;51.378;6.736;2023-07-29T11:35:20;23.20;99.90
59999;DHT22;45859;51.378;6.736;2023-07-29T11:37:50;23.40;99.90
59999;DHT22;45859;51.378;6.736;2023-07-29T11:40:23;23.50;99.90
59999;DHT22;45859;51.378;6.736;2023-07-29T11:42:51;23.60;99.90
59999;DHT22;45859;51.378;6.736;2023-07-29T11:45:18;23.70;99.90
59999;DHT22;45859;51.378;6.736;2023-07-29T11:47:45;23.80;99.90
59999;DHT22;45859;51.378;6.736;2023-07-29T11:50:12;23.90;99.90
59999;DHT22;45859;51.378;6.736;2023-07-29T11:52:43;23.80;99.90
59999;DHT22;45859;51.378;6.736;2023-07-29T11:55:09;24.00;99.90
59999;DHT22;45859;51.378;6.736;2023-07-29T11:57:37;24.20;99.90
59999;DHT22;45859;51.378;6.736;2023-07-29T12:00:05;24.20;99.90
59999;DHT22;45859;51.378;6.736;2023-07-29T12:02:32;24.30;99.90
59999;DHT22;45859;51.378;6.736;2023-07-29T12:04:58;24.20;99.90
59999;DHT22;45859;51.378;6.736;2023-07-29T12:07:24;24.10;99.90
59999;DHT22;45859;51.378;6.736;2023-07-29T12:09:50;23.90;99.90
59999;DHT22;45859;51.378;6.736;2023-07-29T12:12:17;24.00;99.90
59999;DHT22;45859;51.378;6.736;2023-07-29T12:14:46;24.20;99.90
59999;DHT22;45859;51.378;6.736;2023-07-29T12:17:12;24.30;99.90
59999;DHT22;45859;51.378;6.736;2023-07-29T12:19:39;24.40;99.90
59999;DHT22;45859;51.378;6.736;2023-07-29T12:22:07;24.10;99.90
59999;DHT22;45859;51.378;6.736;2023-07-29T12:24:35;23.90;99.90
59999;DHT22;45859;51.378;6.736;2023-07-29T12:27:01;23.60;99.90
59999;DHT22;45859;51.378;6.736;2023-07-29T12:29:27;23.20;99.90
59999;DHT22;45859;51.378;6.736;2023-07-29T12:32:01;23.20;99.90
59999;DHT22;45859;51.378;6.736;2023-07-29T12:34:31;24.30;99.90
59999;DHT22;45859;51.378;6.736;2023-07-29T12:36:58;23.70;99.90
59999;DHT22;45859;51.378;6.736;2023-07-29T12:39:27;23.80;99.90
59999;DHT22;45859;51.378;6.736;2023-07-29T12:41:55;23.80;99.90
59999;DHT22;45859;51.378;6.736;2023-07-29T12:44:23;23.90;99.90
59999;DHT22;45859;51.378;6.736;2023-07-29T12:46:49;24.00;99.90
59999;DHT22;45859;51.378;6.736;2023-07-29T12:49:15;24.10;99.90
59999;DHT22;45859;51.378;6.736;2023-07-29T12:51:41;24.30;99.90
59999;DHT22;45859;51.378;6.736;2023-07-29T12:54:07;24.50;99.90
59999;DHT22;45859;51.378;6.736;2023-07-29T12:56:33;24.40;99.90
59999;DHT22;45859;51.378;6.736;2023-07-29T12:59:02;24.30;99.90
59999;DHT22;45859;51.378;6.736;2023-07-29T13:01:29;24.40;99.90
59999;DHT22;45859;51.378;6.736;2023-07-29T13:03:55;24.30;99.90
59999;DHT22;45859;51.378;6.736;2023-07-29T13:06:30;24.30;99.90
59999;DHT22;45859;51.378;6.736;2023-07-29T13:08:56;24.50;99.90
59999;DHT22;45859;51.378;6.736;2023-07-29T13:11:25;24.60;99.90
59999;DHT22;45859;51.378;6.736;2023-07-29T13:13:58;24.80;99.90
59999;DHT22;45859;51.378;6.736;2023-07-29T13:16:23;24.60;99.90
59999;DHT22;45859;51.378;6.736;2023-07-29T13:18:50;24.60;99.90
59999;DHT22;45859;51.378;6.736;2023-07-29T13:21:15;24.30;99.90
59999;DHT22;45859;51.378;6.736;2023-07-29T13:23:41;24.00;99.90
59999;DHT22;45859;51.378;6.736;2023-07-29T13:26:10;23.70;99.90
59999;DHT22;45859;51.378;6.736;2023-07-29T13:28:36;23.40;99.90
59999;DHT22;45859;51.378;6.736;2023-07-29T13:31:05;23.40;99.90
59999;DHT22;45859;51.378;6.736;2023-07-29T13:33:31;23.30;99.90
59999;DHT22;45859;51.378;6.736;2023-07-29T13:36:00;23.20;99.90
59999;DHT22;45859;51.378;6.736;2023-07-29T13:38:27;23.00;99.90
59999;DHT22;45859;51.378;6.736;2023-07-29T13:40:53;22.80;99.90
59999;DHT22;45859;51.378;6.736;2023-07-29T13:43:19;22.60;99.90
59999;DHT22;45859;51.378;6.736;2023-07-29T13:45:44;22.30;99.90
59999;DHT22;45859;51.378;6.736;2023-07-29T13:48:10;22.00;99.90
59999;DHT22;45859;51.378;6.736;2023-07-29T13:50:36;21.50;99.90
59999;DHT22;45859;51.378;6.736;2023-07-29T13:53:02;21.20;99.90
59999;DHT22;45859;51.378;6.736;2023-07-29T13:55:27;20.90;99.90
59999;DHT22;45859;51.378;6.736;2023-07-29T13:57:56;20.70;99.90
59999;DHT22;45859;51.378;6.736;2023-07-29T14:00:22;20.40;99.90
59999;DHT22;45859;51.378;6.736;2023-07-29T14:02:48;20.20;99.90
59999;DHT22;45859;51.378;6.736;2023-07-29T14:05:14;20.20;99.90
59999;DHT22;45859;51.378;6.736;2023-07-29T14:07:39;20.10;99.90
59999;DHT22;45859;51.378;6.736;2023-07-29T14:10:05;20.10;99.90
59999;DHT22;45859;51.378;6.736;2023-07-29T14:12:31;20.20;99.90
59999;DHT22;45859;51.378;6.736;2023-07-29T14:14:57;20.40;99.90
59999;DHT22;45859;51.378;6.736;2023-07-29T14:17:22;20.70;99.90
59999;DHT22;45859;51.378;6.736;2023-07-29T14:19:48;21.00;99.90
59999;DHT22;45859;51.378;6.736;2023-07-29T14:22:14;21.50;99.90
59999;DHT22;45859;51.378;6.736;2023-07-29T14:24:39;21.80;99.90
59999;DHT22;45859;51.378;6.736;2023-07-29T14:27:05;22.10;99.90
59999;DHT22;45859;51.378;6.736;2023-07-29T14:29:31;22.20;99.90
59999;DHT22;45859;51.378;6.736;2023-07-29T14:31:57;22.20;99.90
59999;DHT22;45859;51.378;6.736;2023-07-29T14:34:23;22.20;99.90
59999;DHT22;45859;51.378;6.736;2023-07-29T14:36:48;22.30;99.90
59999;DHT22;45859;51.378;6.736;2023-07-29T14:39:14;22.30;99.90
59999;DHT22;45859;51.378;6.736;2023-07-29T14:41:39;22.20;99.90
59999;DHT22;45859;51.378;6.736;2023-07-29T14:44:05;21.90;99.90
59999;DHT22;45859;51.378;6.736;2023-07-29T14:46:31;21.70;99.90
59999;DHT22;45859;51.378;6.736;2023-07-29T14:48:57;21.60;99.90
59999;DHT22;45859;51.378;6.736;2023-07-29T14:51:23;21.60;99.90
59999;DHT22;45859;51.378;6.736;2023-07-29T14:53:49;21.60;99.90
59999;DHT22;45859;51.378;6.736;2023-07-29T14:56:14;21.60;99.90
59999;DHT22;45859;51.378;6.736;2023-07-29T14:58:43;21.40;99.90
59999;DHT22;45859;51.378;6.736;2023-07-29T15:01:09;21.10;99.90
59999;DHT22;45859;51.378;6.736;2023-07-29T15:03:34;20.90;99.90
59999;DHT22;45859;51.378;6.736;2023-07-29T15:06:00;20.80;99.90
59999;DHT22;45859;51.378;6.736;2023-07-29T15:08:26;20.70;99.90
59999;DHT22;45859;51.378;6.736;2023-07-29T15:10:52;20.60;99.90
59999;DHT22;45859;51.378;6.736;2023-07-29T15:13:19;20.40;99.90
59999;DHT22;45859;51.378;6.736;2023-07-29T15:15:45;20.40;99.90
59999;DHT22;45859;51.378;6.736;2023-07-29T15:18:11;20.40;99.90
59999;DHT22;45859;51.378;6.736;2023-07-29T15:20:36;20.70;99.90
59999;DHT22;45859;51.378;6.736;2023-07-29T15:23:02;20.90;99.90
59999;DHT22;45859;51.378;6.736;2023-07-29T15:25:28;21.10;99.90
59999;DHT22;45859;51.378;6.736;2023-07-29T15:27:54;21.20;99.90
59999;DHT22;45859;51.378;6.736;2023-07-29T15:30:20;21.30;99.90
59999;DHT22;45859;51.378;6.736;2023-07-29T15:32:46;21.50;99.90
59999;DHT22;45859;51.378;6.736;2023-07-29T15:35:12;21.70;99.90
59999;DHT22;45859;51.378;6.736;2023-07-29T15:37:38;21.80;99.90
59999;DHT22;45859;51.378;6.736;2023-07-29T15:40:04;21.70;99.90
59999;DHT22;45859;51.378;6.736;2023-07-29T15:42:30;21.60;99.90
59999;DHT22;45859;51.378;6.736;2023-07-29T15:44:56;21.50;99.90
59999;DHT22;45859;51.378;6.736;2023-07-29T15:47:22;21.40;99.90
59999;DHT22;45859;51.378;6.736;2023-07-29T15:49:47;21.40;99.90
59999;DHT22;45859;51.378;6.736;2023-07-29T15:52:13;21.30;99.90